sensor_id;sensor_type;location;lat;lon;timestamp;pressure;altitude;pressure_sealevel;temperature;humidity
78409;BME280;67697;50.750;-3.270;2024-02-26T00:00:38;98907.77;;;2.91;100.00
78409;BME280;67697;50.750;-3.270;2024-02-26T00:03:04;98911.17;;;3.24;100.00
78409;BME280;67697;50.750;-3.270;2024-02-26T00:05:29;98926.95;;;3.16;100.00
78409;BME280;67697;50.750;-3.270;2024-02-26T00:07:55;98929.69;;;3.19;100.00
78409;BME280;67697;50.750;-3.270;2024-02-26T00:10:20;98934.44;;;3.42;100.00
78409;BME280;67697;50.750;-3.270;2024-02-26T00:12:46;98939.52;;;3.23;100.00
78409;BME280;67697;50.750;-3.270;2024-02-26T00:15:12;98945.23;;;3.35;100.00
78409;BME280;67697;50.750;-3.270;2024-02-26T00:17:37;98959.16;;;3.30;100.00
78409;BME280;67697;50.750;-3.270;2024-02-26T00:20:02;98964.92;;;3.36;100.00
78409;BME280;67697;50.750;-3.270;2024-02-26T00:22:27;98973.64;;;3.14;100.00
78409;BME280;67697;50.750;-3.270;2024-02-26T00:24:54;98971.92;;;3.34;100.00
78409;BME280;67697;50.750;-3.270;2024-02-26T00:27:18;98983.79;;;2.98;100.00
78409;BME280;67697;50.750;-3.270;2024-02-26T00:29:44;98983.10;;;2.84;100.00
78409;BME280;67697;50.750;-3.270;2024-02-26T00:32:10;98991.27;;;2.71;100.00
78409;BME280;67697;50.750;-3.270;2024-02-26T00:34:35;98996.22;;;2.94;100.00
78409;BME280;67697;50.750;-3.270;2024-02-26T00:37:01;99008.77;;;2.60;100.00
78409;BME280;67697;50.750;-3.270;2024-02-26T00:39:26;99014.17;;;2.79;100.00
78409;BME280;67697;50.750;-3.270;2024-02-26T00:41:52;99018.22;;;2.97;100.00
78409;BME280;67697;50.750;-3.270;2024-02-26T00:44:17;99026.09;;;3.04;100.00
78409;BME280;67697;50.750;-3.270;2024-02-26T00:46:43;99034.95;;;2.87;100.00
78409;BME280;67697;50.750;-3.270;2024-02-26T00:49:08;99034.00;;;3.01;100.00
78409;BME280;67697;50.750;-3.270;2024-02-26T00:51:34;99042.24;;;3.01;100.00
78409;BME280;67697;50.750;-3.270;2024-02-26T00:54:00;99046.03;;;2.34;100.00
78409;BME280;67697;50.750;-3.270;2024-02-26T00:56:25;99051.16;;;2.58;100.00
78409;BME280;67697;50.750;-3.270;2024-02-26T00:58:51;99058.21;;;3.06;100.00
78409;BME280;67697;50.750;-3.270;2024-02-26T01:01:16;99065.51;;;2.83;100.00
78409;BME280;67697;50.750;-3.270;2024-02-26T01:03:42;99075.38;;;3.12;100.00
78409;BME280;67697;50.750;-3.270;2024-02-26T01:06:09;99071.56;;;2.79;100.00
78409;BME280;67697;50.750;-3.270;2024-02-26T01:08:33;99079.49;;;2.69;100.00
78409;BME280;67697;50.750;-3.270;2024-02-26T01:10:59;99090.13;;;2.27;100.00
78409;BME280;67697;50.750;-3.270;2024-02-26T01:13:25;99101.28;;;2.85;100.00
78409;BME280;67697;50.750;-3.270;2024-02-26T01:15:50;99111.58;;;2.86;100.00
78409;BME280;67697;50.750;-3.270;2024-02-26T01:18:16;99118.92;;;2.35;100.00
78409;BME280;67697;50.750;-3.270;2024-02-26T01:20:42;99122.16;;;2.87;100.00
78409;BME280;67697;50.750;-3.270;2024-02-26T01:23:08;99130.09;;;2.81;100.00
78409;BME280;67697;50.750;-3.270;2024-02-26T01:25:33;99138.89;;;2.58;100.00
78409;BME280;67697;50.750;-3.270;2024-02-26T01:27:58;99131.95;;;2.53;100.00
78409;BME280;67697;50.750;-3.270;2024-02-26T01:30:24;99152.79;;;2.36;100.00
78409;BME280;67697;50.750;-3.270;2024-02-26T01:32:50;99158.79;;;2.53;100.00
78409;BME280;67697;50.750;-3.270;2024-02-26T01:35:16;99159.87;;;2.12;100.00
78409;BME280;67697;50.750;-3.270;2024-02-26T01:37:42;99174.79;;;2.67;100.00
78409;BME280;67697;50.750;-3.270;2024-02-26T01:40:08;99180.69;;;2.51;100.00
78409;BME280;67697;50.750;-3.270;2024-02-26T01:42:33;99187.53;;;2.46;100.00
78409;BME280;67697;50.750;-3.270;2024-02-26T01:44:58;99201.19;;;2.47;100.00
78409;BME280;67697;50.750;-3.270;2024-02-26T01:47:25;99198.96;;;2.38;100.00
78409;BME280;67697;50.750;-3.270;2024-02-26T01:49:50;99207.94;;;2.64;100.00
78409;BME280;67697;50.750;-3.270;2024-02-26T01:52:16;99212.54;;;2.87;100.00
78409;BME280;67697;50.750;-3.270;2024-02-26T01:54:42;99218.67;;;2.75;100.00
78409;BME280;67697;50.750;-3.270;2024-02-26T01:57:08;99222.16;;;2.80;100.00
78409;BME280;67697;50.750;-3.270;2024-02-26T01:59:34;99223.22;;;2.62;100.00
78409;BME280;67697;50.750;-3.270;2024-02-26T02:02:01;99227.91;;;1.98;100.00
78409;BME280;67697;50.750;-3.270;2024-02-26T02:04:24;99241.52;;;2.59;100.00
78409;BME280;67697;50.750;-3.270;2024-02-26T02:06:51;99246.51;;;2.34;100.00
78409;BME280;67697;50.750;-3.270;2024-02-26T02:09:16;99250.44;;;2.54;100.00
78409;BME280;67697;50.750;-3.270;2024-02-26T02:11:42;99257.48;;;2.15;100.00
78409;BME280;67697;50.750;-3.270;2024-02-26T02:14:08;99258.65;;;2.14;100.00
78409;BME280;67697;50.750;-3.270;2024-02-26T02:16:33;99261.49;;;2.60;100.00
78409;BME280;67697;50.750;-3.270;2024-02-26T02:18:59;99274.63;;;1.75;100.00
78409;BME280;67697;50.750;-3.270;2024-02-26T02:21:25;99275.00;;;2.27;100.00
78409;BME280;67697;50.750;-3.270;2024-02-26T02:23:51;99276.77;;;2.24;100.00
78409;BME280;67697;50.750;-3.270;2024-02-26T02:26:16;99297.84;;;2.31;100.00
78409;BME280;67697;50.750;-3.270;2024-02-26T02:28:42;99291.13;;;2.76;100.00
78409;BME280;67697;50.750;-3.270;2024-02-26T02:31:08;99291.07;;;2.70;100.00
78409;BME280;67697;50.750;-3.270;2024-02-26T02:33:34;99299.48;;;2.63;100.00
78409;BME280;67697;50.750;-3.270;2024-02-26T02:35:59;99300.20;;;1.78;100.00
78409;BME280;67697;50.750;-3.270;2024-02-26T02:38:25;99316.81;;;2.56;100.00
78409;BME280;67697;50.750;-3.270;2024-02-26T02:40:50;99318.80;;;2.34;100.00
78409;BME280;67697;50.750;-3.270;2024-02-26T02:43:16;99315.38;;;2.20;100.00
78409;BME280;67697;50.750;-3.270;2024-02-26T02:45:42;99335.56;;;2.71;100.00
78409;BME280;67697;50.750;-3.270;2024-02-26T02:48:08;99326.32;;;2.46;100.00
78409;BME280;67697;50.750;-3.270;2024-02-26T02:50:33;99352.40;;;2.41;100.00
78409;BME280;67697;50.750;-3.270;2024-02-26T02:52:59;99345.20;;;2.37;100.00
78409;BME280;67697;50.750;-3.270;2024-02-26T02:55:25;99368.43;;;2.64;100.00
78409;BME280;67697;50.750;-3.270;2024-02-26T02:57:51;99358.40;;;2.58;100.00
78409;BME280;67697;50.750;-3.270;2024-02-26T03:00:17;99377.99;;;2.46;100.00
78409;BME280;67697;50.750;-3.270;2024-02-26T03:02:42;99381.25;;;3.00;100.00
78409;BME280;67697;50.750;-3.270;2024-02-26T03:05:08;99395.19;;;2.59;100.00
78409;BME280;67697;50.750;-3.270;2024-02-26T03:07:34;99393.49;;;2.88;100.00
78409;BME280;67697;50.750;-3.270;2024-02-26T03:10:00;99402.76;;;2.72;100.00
78409;BME280;67697;50.750;-3.270;2024-02-26T03:12:25;99404.96;;;2.92;100.00
78409;BME280;67697;50.750;-3.270;2024-02-26T03:14:51;99416.09;;;2.25;100.00
78409;BME280;67697;50.750;-3.270;2024-02-26T03:17:17;99437.60;;;2.86;100.00
78409;BME280;67697;50.750;-3.270;2024-02-26T03:19:44;99428.40;;;2.79;100.00
78409;BME280;67697;50.750;-3.270;2024-02-26T03:22:08;99434.25;;;2.76;100.00
78409;BME280;67697;50.750;-3.270;2024-02-26T03:24:34;99437.50;;;2.86;100.00
78409;BME280;67697;50.750;-3.270;2024-02-26T03:26:59;99442.37;;;2.60;100.00
78409;BME280;67697;50.750;-3.270;2024-02-26T03:29:25;99448.47;;;2.72;100.00
78409;BME280;67697;50.750;-3.270;2024-02-26T03:31:51;99449.84;;;2.48;100.00
78409;BME280;67697;50.750;-3.270;2024-02-26T03:34:16;99448.69;;;2.33;100.00
78409;BME280;67697;50.750;-3.270;2024-02-26T03:36:42;99472.46;;;2.99;100.00
78409;BME280;67697;50.750;-3.270;2024-02-26T03:39:08;99459.43;;;2.55;100.00
78409;BME280;67697;50.750;-3.270;2024-02-26T03:41:34;99467.24;;;3.05;100.00
78409;BME280;67697;50.750;-3.270;2024-02-26T03:44:00;99476.14;;;2.41;100.00
78409;BME280;67697;50.750;-3.270;2024-02-26T03:46:25;99482.01;;;2.64;100.00
78409;BME280;67697;50.750;-3.270;2024-02-26T03:48:51;99496.23;;;2.63;100.00
78409;BME280;67697;50.750;-3.270;2024-02-26T03:51:17;99489.85;;;2.78;100.00
78409;BME280;67697;50.750;-3.270;2024-02-26T03:53:42;99488.47;;;2.86;100.00
78409;BME280;67697;50.750;-3.270;2024-02-26T03:56:08;99502.59;;;3.00;100.00
78409;BME280;67697;50.750;-3.270;2024-02-26T03:58:34;99527.89;;;2.93;100.00
78409;BME280;67697;50.750;-3.270;2024-02-26T04:01:00;99508.60;;;2.75;100.00
78409;BME280;67697;50.750;-3.270;2024-02-26T04:03:25;99516.48;;;2.48;100.00
78409;BME280;67697;50.750;-3.270;2024-02-26T04:05:51;99540.92;;;2.94;100.00
78409;BME280;67697;50.750;-3.270;2024-02-26T04:08:17;99544.16;;;2.66;100.00
78409;BME280;67697;50.750;-3.270;2024-02-26T04:10:43;99548.23;;;2.26;100.00
78409;BME280;67697;50.750;-3.270;2024-02-26T04:13:08;99560.10;;;2.98;100.00
78409;BME280;67697;50.750;-3.270;2024-02-26T04:15:34;99571.63;;;2.93;100.00
78409;BME280;67697;50.750;-3.270;2024-02-26T04:18:00;99577.75;;;2.64;100.00
78409;BME280;67697;50.750;-3.270;2024-02-26T04:20:26;99578.16;;;2.66;100.00
78409;BME280;67697;50.750;-3.270;2024-02-26T04:22:51;99586.30;;;2.81;100.00
78409;BME280;67697;50.750;-3.270;2024-02-26T04:25:17;99596.14;;;2.55;100.00
78409;BME280;67697;50.750;-3.270;2024-02-26T04:27:43;99585.25;;;2.34;100.00
78409;BME280;67697;50.750;-3.270;2024-02-26T04:30:09;99602.82;;;2.47;100.00
78409;BME280;67697;50.750;-3.270;2024-02-26T04:32:35;99608.09;;;2.67;100.00
78409;BME280;67697;50.750;-3.270;2024-02-26T04:35:00;99614.04;;;2.41;100.00
78409;BME280;67697;50.750;-3.270;2024-02-26T04:37:26;99619.49;;;2.79;100.00
78409;BME280;67697;50.750;-3.270;2024-02-26T04:39:52;99613.80;;;2.75;100.00
78409;BME280;67697;50.750;-3.270;2024-02-26T04:42:17;99631.22;;;2.36;100.00
78409;BME280;67697;50.750;-3.270;2024-02-26T04:44:43;99636.22;;;2.81;100.00
78409;BME280;67697;50.750;-3.270;2024-02-26T04:47:09;99638.26;;;2.37;100.00
78409;BME280;67697;50.750;-3.270;2024-02-26T04:49:35;99642.17;;;2.75;100.00
78409;BME280;67697;50.750;-3.270;2024-02-26T04:52:00;99653.77;;;2.71;100.00
78409;BME280;67697;50.750;-3.270;2024-02-26T04:54:26;99658.42;;;2.65;100.00
78409;BME280;67697;50.750;-3.270;2024-02-26T04:56:52;99661.75;;;2.66;100.00
78409;BME280;67697;50.750;-3.270;2024-02-26T04:59:18;99666.33;;;2.59;100.00
78409;BME280;67697;50.750;-3.270;2024-02-26T05:01:44;99670.70;;;2.80;100.00
78409;BME280;67697;50.750;-3.270;2024-02-26T05:04:09;99677.48;;;2.26;100.00
78409;BME280;67697;50.750;-3.270;2024-02-26T05:06:37;99682.00;;;2.63;100.00
78409;BME280;67697;50.750;-3.270;2024-02-26T05:09:01;99682.45;;;2.53;100.00
78409;BME280;67697;50.750;-3.270;2024-02-26T05:11:27;99690.01;;;2.66;100.00
78409;BME280;67697;50.750;-3.270;2024-02-26T05:13:52;99697.51;;;2.42;100.00
78409;BME280;67697;50.750;-3.270;2024-02-26T05:16:18;99690.31;;;2.49;100.00
78409;BME280;67697;50.750;-3.270;2024-02-26T05:18:44;99699.07;;;2.23;100.00
78409;BME280;67697;50.750;-3.270;2024-02-26T05:21:10;99701.91;;;2.33;100.00
78409;BME280;67697;50.750;-3.270;2024-02-26T05:23:36;99713.59;;;2.29;100.00
78409;BME280;67697;50.750;-3.270;2024-02-26T05:26:01;99712.14;;;2.42;100.00
78409;BME280;67697;50.750;-3.270;2024-02-26T05:28:27;99733.21;;;2.09;100.00
78409;BME280;67697;50.750;-3.270;2024-02-26T05:30:53;99724.29;;;2.13;100.00
78409;BME280;67697;50.750;-3.270;2024-02-26T05:33:19;99720.62;;;2.14;100.00
78409;BME280;67697;50.750;-3.270;2024-02-26T05:35:44;99725.31;;;2.13;100.00
78409;BME280;67697;50.750;-3.270;2024-02-26T05:38:10;99740.40;;;2.28;100.00
78409;BME280;67697;50.750;-3.270;2024-02-26T05:40:36;99738.61;;;2.23;100.00
78409;BME280;67697;50.750;-3.270;2024-02-26T05:43:02;99746.25;;;2.32;100.00
78409;BME280;67697;50.750;-3.270;2024-02-26T05:45:27;99754.12;;;2.22;100.00
78409;BME280;67697;50.750;-3.270;2024-02-26T05:47:53;99768.92;;;2.19;100.00
78409;BME280;67697;50.750;-3.270;2024-02-26T05:50:19;99774.00;;;2.41;100.00
78409;BME280;67697;50.750;-3.270;2024-02-26T05:52:45;99785.11;;;2.14;100.00
78409;BME280;67697;50.750;-3.270;2024-02-26T05:55:11;99804.73;;;2.51;100.00
78409;BME280;67697;50.750;-3.270;2024-02-26T05:57:36;99809.43;;;2.28;100.00
78409;BME280;67697;50.750;-3.270;2024-02-26T06:00:03;99814.61;;;2.05;100.00
78409;BME280;67697;50.750;-3.270;2024-02-26T06:02:28;99824.13;;;2.23;100.00
78409;BME280;67697;50.750;-3.270;2024-02-26T06:04:54;99841.47;;;2.15;100.00
78409;BME280;67697;50.750;-3.270;2024-02-26T06:07:19;99846.36;;;2.32;100.00
78409;BME280;67697;50.750;-3.270;2024-02-26T06:09:45;99852.62;;;2.05;100.00
78409;BME280;67697;50.750;-3.270;2024-02-26T06:12:11;99866.34;;;2.07;100.00
78409;BME280;67697;50.750;-3.270;2024-02-26T06:14:37;99877.87;;;2.32;100.00
78409;BME280;67697;50.750;-3.270;2024-02-26T06:17:03;99887.97;;;2.42;100.00
78409;BME280;67697;50.750;-3.270;2024-02-26T06:19:28;99898.68;;;2.54;100.00
78409;BME280;67697;50.750;-3.270;2024-02-26T06:21:54;99920.22;;;2.49;100.00
78409;BME280;67697;50.750;-3.270;2024-02-26T06:24:20;99920.80;;;2.14;100.00
78409;BME280;67697;50.750;-3.270;2024-02-26T06:26:46;99925.30;;;2.50;100.00
78409;BME280;67697;50.750;-3.270;2024-02-26T06:29:11;99927.36;;;2.25;100.00
78409;BME280;67697;50.750;-3.270;2024-02-26T06:31:37;99936.23;;;2.28;100.00
78409;BME280;67697;50.750;-3.270;2024-02-26T06:34:03;99938.38;;;2.45;100.00
78409;BME280;67697;50.750;-3.270;2024-02-26T06:36:29;99935.57;;;2.12;100.00
78409;BME280;67697;50.750;-3.270;2024-02-26T06:38:54;99935.66;;;2.39;100.00
78409;BME280;67697;50.750;-3.270;2024-02-26T06:41:20;99952.84;;;2.51;100.00
78409;BME280;67697;50.750;-3.270;2024-02-26T06:43:46;99956.44;;;2.64;100.00
78409;BME280;67697;50.750;-3.270;2024-02-26T06:46:12;99959.14;;;2.13;100.00
78409;BME280;67697;50.750;-3.270;2024-02-26T06:48:38;99973.98;;;2.20;100.00
78409;BME280;67697;50.750;-3.270;2024-02-26T06:51:04;99970.50;;;2.38;100.00
78409;BME280;67697;50.750;-3.270;2024-02-26T06:53:29;99989.48;;;2.22;100.00
78409;BME280;67697;50.750;-3.270;2024-02-26T06:55:55;99991.72;;;2.61;100.00
78409;BME280;67697;50.750;-3.270;2024-02-26T06:58:21;100001.63;;;2.49;100.00
78409;BME280;67697;50.750;-3.270;2024-02-26T07:00:47;100014.74;;;2.36;100.00
78409;BME280;67697;50.750;-3.270;2024-02-26T07:03:13;100019.42;;;2.47;100.00
78409;BME280;67697;50.750;-3.270;2024-02-26T07:05:38;100022.88;;;2.51;100.00
78409;BME280;67697;50.750;-3.270;2024-02-26T07:08:04;100026.07;;;2.52;100.00
78409;BME280;67697;50.750;-3.270;2024-02-26T07:10:29;100027.83;;;2.33;100.00
78409;BME280;67697;50.750;-3.270;2024-02-26T07:12:55;100031.53;;;2.65;100.00
78409;BME280;67697;50.750;-3.270;2024-02-26T07:15:21;100038.49;;;2.56;100.00
78409;BME280;67697;50.750;-3.270;2024-02-26T07:17:47;100032.65;;;2.37;100.00
78409;BME280;67697;50.750;-3.270;2024-02-26T07:20:13;100042.07;;;2.15;100.00
78409;BME280;67697;50.750;-3.270;2024-02-26T07:22:38;100047.08;;;2.63;100.00
78409;BME280;67697;50.750;-3.270;2024-02-26T07:25:05;100055.60;;;2.53;100.00
78409;BME280;67697;50.750;-3.270;2024-02-26T07:27:30;100050.53;;;2.14;100.00
78409;BME280;67697;50.750;-3.270;2024-02-26T07:29:56;100056.89;;;2.34;100.00
78409;BME280;67697;50.750;-3.270;2024-02-26T07:32:21;100064.60;;;2.37;100.00
78409;BME280;67697;50.750;-3.270;2024-02-26T07:34:47;100070.88;;;2.71;100.00
78409;BME280;67697;50.750;-3.270;2024-02-26T07:37:14;100073.19;;;2.40;100.00
78409;BME280;67697;50.750;-3.270;2024-02-26T07:39:39;100069.34;;;2.41;100.00
78409;BME280;67697;50.750;-3.270;2024-02-26T07:42:05;100072.07;;;2.32;100.00
78409;BME280;67697;50.750;-3.270;2024-02-26T07:44:30;100072.03;;;2.40;100.00
78409;BME280;67697;50.750;-3.270;2024-02-26T07:46:56;100078.70;;;2.57;100.00
78409;BME280;67697;50.750;-3.270;2024-02-26T07:49:22;100085.39;;;2.46;100.00
78409;BME280;67697;50.750;-3.270;2024-02-26T07:51:48;100104.07;;;2.51;100.00
78409;BME280;67697;50.750;-3.270;2024-02-26T07:54:14;100101.10;;;2.52;100.00
78409;BME280;67697;50.750;-3.270;2024-02-26T07:56:39;100123.74;;;2.65;100.00
78409;BME280;67697;50.750;-3.270;2024-02-26T07:59:05;100116.21;;;2.57;100.00
78409;BME280;67697;50.750;-3.270;2024-02-26T08:01:31;100128.53;;;2.82;100.00
78409;BME280;67697;50.750;-3.270;2024-02-26T08:03:57;100144.58;;;2.75;100.00
78409;BME280;67697;50.750;-3.270;2024-02-26T08:06:23;100137.33;;;2.48;100.00
78409;BME280;67697;50.750;-3.270;2024-02-26T08:08:48;100141.84;;;2.88;100.00
78409;BME280;67697;50.750;-3.270;2024-02-26T08:11:15;100142.22;;;2.55;100.00
78409;BME280;67697;50.750;-3.270;2024-02-26T08:13:40;100142.56;;;2.52;100.00
78409;BME280;67697;50.750;-3.270;2024-02-26T08:16:06;100145.25;;;2.67;100.00
78409;BME280;67697;50.750;-3.270;2024-02-26T08:18:31;100152.95;;;2.63;100.00
78409;BME280;67697;50.750;-3.270;2024-02-26T08:20:57;100163.83;;;2.60;100.00
78409;BME280;67697;50.750;-3.270;2024-02-26T08:23:23;100160.72;;;2.86;100.00
78409;BME280;67697;50.750;-3.270;2024-02-26T08:25:49;100174.86;;;2.85;100.00
78409;BME280;67697;50.750;-3.270;2024-02-26T08:28:14;100187.09;;;2.67;100.00
78409;BME280;67697;50.750;-3.270;2024-02-26T08:30:40;100199.12;;;2.63;100.00
78409;BME280;67697;50.750;-3.270;2024-02-26T08:33:06;100196.47;;;2.42;100.00
78409;BME280;67697;50.750;-3.270;2024-02-26T08:35:32;100204.32;;;2.66;100.00
78409;BME280;67697;50.750;-3.270;2024-02-26T08:37:57;100229.74;;;2.74;100.00
78409;BME280;67697;50.750;-3.270;2024-02-26T08:40:23;100226.31;;;2.81;100.00
78409;BME280;67697;50.750;-3.270;2024-02-26T08:42:49;100221.44;;;2.38;100.00
78409;BME280;67697;50.750;-3.270;2024-02-26T08:45:15;100233.89;;;2.41;100.00
78409;BME280;67697;50.750;-3.270;2024-02-26T08:47:40;100242.03;;;2.95;100.00
78409;BME280;67697;50.750;-3.270;2024-02-26T08:50:07;100245.96;;;2.44;100.00
78409;BME280;67697;50.750;-3.270;2024-02-26T08:52:32;100252.31;;;2.35;100.00
78409;BME280;67697;50.750;-3.270;2024-02-26T08:54:58;100240.79;;;2.28;100.00
78409;BME280;67697;50.750;-3.270;2024-02-26T08:57:24;100246.21;;;2.65;100.00
78409;BME280;67697;50.750;-3.270;2024-02-26T08:59:49;100255.44;;;2.52;100.00
78409;BME280;67697;50.750;-3.270;2024-02-26T09:02:16;100261.87;;;2.47;100.00
78409;BME280;67697;50.750;-3.270;2024-02-26T09:04:41;100264.11;;;2.70;100.00
78409;BME280;67697;50.750;-3.270;2024-02-26T09:07:07;100261.16;;;2.40;100.00
78409;BME280;67697;50.750;-3.270;2024-02-26T09:09:33;100277.51;;;2.38;100.00
78409;BME280;67697;50.750;-3.270;2024-02-26T09:11:58;100282.49;;;2.07;100.00
78409;BME280;67697;50.750;-3.270;2024-02-26T09:14:24;100288.62;;;2.29;100.00
78409;BME280;67697;50.750;-3.270;2024-02-26T09:16:50;100294.11;;;2.47;100.00
78409;BME280;67697;50.750;-3.270;2024-02-26T09:19:16;100299.55;;;2.06;100.00
78409;BME280;67697;50.750;-3.270;2024-02-26T09:21:43;100304.74;;;2.62;100.00
78409;BME280;67697;50.750;-3.270;2024-02-26T09:24:07;100303.72;;;2.12;100.00
78409;BME280;67697;50.750;-3.270;2024-02-26T09:26:33;100315.06;;;2.39;100.00
78409;BME280;67697;50.750;-3.270;2024-02-26T09:28:59;100319.32;;;3.05;100.00
78409;BME280;67697;50.750;-3.270;2024-02-26T09:31:25;100310.25;;;3.01;100.00
78409;BME280;67697;50.750;-3.270;2024-02-26T09:33:51;100324.40;;;2.55;100.00
78409;BME280;67697;50.750;-3.270;2024-02-26T09:36:16;100316.98;;;2.46;100.00
78409;BME280;67697;50.750;-3.270;2024-02-26T09:38:42;100330.27;;;2.99;100.00
78409;BME280;67697;50.750;-3.270;2024-02-26T09:41:14;100348.33;;;2.78;100.00
78409;BME280;67697;50.750;-3.270;2024-02-26T09:43:35;100360.11;;;2.56;100.00
78409;BME280;67697;50.750;-3.270;2024-02-26T09:45:59;100359.22;;;2.80;100.00
78409;BME280;67697;50.750;-3.270;2024-02-26T09:48:25;100357.82;;;2.69;100.00
78409;BME280;67697;50.750;-3.270;2024-02-26T09:50:52;100374.05;;;2.92;100.00
78409;BME280;67697;50.750;-3.270;2024-02-26T09:53:17;100370.22;;;2.76;100.00
78409;BME280;67697;50.750;-3.270;2024-02-26T09:55:43;100369.93;;;3.07;100.00
78409;BME280;67697;50.750;-3.270;2024-02-26T09:58:10;100374.69;;;2.80;100.00
78409;BME280;67697;50.750;-3.270;2024-02-26T10:00:37;100381.06;;;2.76;100.00
78409;BME280;67697;50.750;-3.270;2024-02-26T10:03:03;100394.65;;;2.79;100.00
78409;BME280;67697;50.750;-3.270;2024-02-26T10:05:26;100388.87;;;3.10;100.00
78409;BME280;67697;50.750;-3.270;2024-02-26T10:07:52;100395.79;;;3.00;100.00
78409;BME280;67697;50.750;-3.270;2024-02-26T10:10:18;100413.74;;;2.71;100.00
78409;BME280;67697;50.750;-3.270;2024-02-26T10:12:43;100422.80;;;3.27;100.00
78409;BME280;67697;50.750;-3.270;2024-02-26T10:15:09;100415.20;;;3.00;100.00
78409;BME280;67697;50.750;-3.270;2024-02-26T10:17:34;100429.74;;;3.15;100.00
78409;BME280;67697;50.750;-3.270;2024-02-26T10:22:27;100430.32;;;3.21;100.00
78409;BME280;67697;50.750;-3.270;2024-02-26T10:24:54;100440.67;;;3.55;100.00
78409;BME280;67697;50.750;-3.270;2024-02-26T10:27:19;100441.42;;;3.40;100.00
78409;BME280;67697;50.750;-3.270;2024-02-26T10:29:43;100450.27;;;3.32;100.00
78409;BME280;67697;50.750;-3.270;2024-02-26T10:32:09;100454.36;;;3.64;100.00
78409;BME280;67697;50.750;-3.270;2024-02-26T10:34:35;100459.83;;;3.65;100.00
78409;BME280;67697;50.750;-3.270;2024-02-26T10:37:01;100464.96;;;3.48;100.00
78409;BME280;67697;50.750;-3.270;2024-02-26T10:39:26;100487.33;;;3.78;100.00
78409;BME280;67697;50.750;-3.270;2024-02-26T10:41:52;100471.81;;;3.60;100.00
78409;BME280;67697;50.750;-3.270;2024-02-26T10:44:18;100499.16;;;3.65;100.00
78409;BME280;67697;50.750;-3.270;2024-02-26T10:46:47;100500.02;;;4.02;100.00
78409;BME280;67697;50.750;-3.270;2024-02-26T10:49:14;100507.29;;;4.16;100.00
78409;BME280;67697;50.750;-3.270;2024-02-26T10:51:36;100511.18;;;4.24;100.00
78409;BME280;67697;50.750;-3.270;2024-02-26T10:54:02;100518.89;;;3.96;100.00
78409;BME280;67697;50.750;-3.270;2024-02-26T10:56:27;100522.72;;;4.25;100.00
78409;BME280;67697;50.750;-3.270;2024-02-26T10:58:53;100527.15;;;4.29;100.00
78409;BME280;67697;50.750;-3.270;2024-02-26T11:01:18;100519.42;;;3.86;100.00
78409;BME280;67697;50.750;-3.270;2024-02-26T11:03:44;100540.53;;;4.20;100.00
78409;BME280;67697;50.750;-3.270;2024-02-26T11:06:09;100544.88;;;4.58;100.00
78409;BME280;67697;50.750;-3.270;2024-02-26T11:08:35;100542.93;;;3.84;100.00
78409;BME280;67697;50.750;-3.270;2024-02-26T11:11:01;100535.49;;;4.45;100.00
78409;BME280;67697;50.750;-3.270;2024-02-26T11:13:28;100543.21;;;4.33;100.00
78409;BME280;67697;50.750;-3.270;2024-02-26T11:15:53;100550.31;;;4.53;100.00
78409;BME280;67697;50.750;-3.270;2024-02-26T11:18:18;100557.87;;;4.37;100.00
78409;BME280;67697;50.750;-3.270;2024-02-26T11:20:46;100561.76;;;4.26;100.00
78409;BME280;67697;50.750;-3.270;2024-02-26T11:23:09;100576.37;;;4.54;100.00
78409;BME280;67697;50.750;-3.270;2024-02-26T11:25:35;100594.07;;;4.68;100.00
78409;BME280;67697;50.750;-3.270;2024-02-26T11:28:04;100611.29;;;4.30;100.00
78409;BME280;67697;50.750;-3.270;2024-02-26T11:30:30;100578.80;;;4.58;100.00
78409;BME280;67697;50.750;-3.270;2024-02-26T11:32:52;100585.15;;;4.66;100.00
78409;BME280;67697;50.750;-3.270;2024-02-26T11:35:18;100585.49;;;4.13;100.00
78409;BME280;67697;50.750;-3.270;2024-02-26T11:37:53;100595.01;;;4.54;100.00
78409;BME280;67697;50.750;-3.270;2024-02-26T11:40:11;100589.90;;;3.89;100.00
78409;BME280;67697;50.750;-3.270;2024-02-26T11:42:43;100614.27;;;4.35;100.00
78409;BME280;67697;50.750;-3.270;2024-02-26T11:45:01;100602.64;;;4.66;100.00
78409;BME280;67697;50.750;-3.270;2024-02-26T11:47:27;100605.52;;;4.18;100.00
78409;BME280;67697;50.750;-3.270;2024-02-26T11:49:52;100620.93;;;4.59;100.00
78409;BME280;67697;50.750;-3.270;2024-02-26T11:52:18;100632.92;;;4.69;100.00
78409;BME280;67697;50.750;-3.270;2024-02-26T11:54:45;100621.74;;;4.31;100.00
78409;BME280;67697;50.750;-3.270;2024-02-26T11:57:22;100633.49;;;4.39;100.00
78409;BME280;67697;50.750;-3.270;2024-02-26T11:59:39;100640.33;;;4.79;100.00
78409;BME280;67697;50.750;-3.270;2024-02-26T12:02:01;100627.22;;;4.58;100.00
78409;BME280;67697;50.750;-3.270;2024-02-26T12:04:27;100641.17;;;4.93;100.00
78409;BME280;67697;50.750;-3.270;2024-02-26T12:06:55;100652.46;;;5.18;100.00
78409;BME280;67697;50.750;-3.270;2024-02-26T12:09:31;100647.70;;;4.81;100.00
78409;BME280;67697;50.750;-3.270;2024-02-26T12:11:44;100638.86;;;4.61;100.00
78409;BME280;67697;50.750;-3.270;2024-02-26T12:14:10;100646.41;;;4.20;100.00
78409;BME280;67697;50.750;-3.270;2024-02-26T12:16:36;100641.51;;;4.82;100.00
78409;BME280;67697;50.750;-3.270;2024-02-26T12:19:02;100660.46;;;4.90;100.00
78409;BME280;67697;50.750;-3.270;2024-02-26T12:21:26;100645.29;;;4.46;100.00
78409;BME280;67697;50.750;-3.270;2024-02-26T12:23:52;100647.64;;;4.73;100.00
78409;BME280;67697;50.750;-3.270;2024-02-26T12:26:18;100670.01;;;5.22;100.00
78409;BME280;67697;50.750;-3.270;2024-02-26T12:28:44;100645.60;;;5.15;100.00
78409;BME280;67697;50.750;-3.270;2024-02-26T12:31:09;100658.79;;;5.47;100.00
78409;BME280;67697;50.750;-3.270;2024-02-26T12:33:35;100668.96;;;4.97;100.00
78409;BME280;67697;50.750;-3.270;2024-02-26T12:36:01;100666.72;;;4.87;100.00
78409;BME280;67697;50.750;-3.270;2024-02-26T12:38:27;100665.21;;;5.06;100.00